Pays
Station

 

Conditions  météo  pour  Toul/Rosieres  -  France    France

  
23 °C
    
 
 

METAR pour Toul/Rosieres :

LFSL 162000Z AUTO VRB02KT CAVOK 23/16 Q1016 NOSIG

 

Voici le bulletin pour Toul/Rosieres - France.
 
Le bulletin a été fait il y a 5 minutes, à 20:00 UTC .
Le vent soufflait à la vitesse de 1.0 mètres par seconde de direction variable.
 
La température était de 23 °C, avec un point de rosée à 16 °C.
La température ressentie était de 24 °C.
 
La pression atmosphérique était de 1016 hPa.
L'humidité relative était de 64.7%.
 
Il y avait pas de nuages en-dessous de 1500 mètres et pas de cumulonimbus.
 
La visibilité globale était de supérieure à 10 kilomètres.
 

 
 
 

Pays :   A   B   C   D   E   F   G   H   I   J   K   L   M   N   O   P   Q   R   S   T   U   V   W   Y   Z

 

Partenaires :  Info Météo avec Met'info
Météo Marine avec MeteoMarine.net
Infos Site  |  Infos Légales  |  Crédits  |  Confidentialité
Contactez-nous  |  Ajouter aux favoris
© 2013-2018 METAR - Tous droits réservés